createdAt,value
2023-02-22T00:00:19.270Z,39.50
2023-02-22T00:02:46.944Z,39.97
2023-02-22T00:05:16.635Z,39.42
2023-02-22T00:07:44.614Z,37.50
2023-02-22T00:10:14.342Z,38.47
2023-02-22T00:12:43.668Z,37.70
2023-02-22T00:15:13.144Z,38.08
2023-02-22T00:17:39.796Z,40.90
2023-02-22T00:20:07.451Z,38.72
2023-02-22T00:22:34.024Z,38.83
2023-02-22T00:25:00.563Z,40.70
2023-02-22T00:27:31.137Z,40.33
2023-02-22T00:29:58.797Z,40.58
2023-02-22T00:32:26.177Z,41.42
2023-02-22T00:34:54.361Z,42.45
2023-02-22T00:37:21.239Z,39.83
2023-02-22T00:39:48.915Z,44.72
2023-02-22T00:42:16.526Z,44.47
2023-02-22T00:44:46.798Z,40.97
2023-02-22T00:47:13.384Z,43.95
2023-02-22T00:49:41.333Z,40.92
2023-02-22T00:52:09.251Z,41.03
2023-02-22T00:54:35.884Z,41.30
2023-02-22T00:57:03.444Z,41.58
2023-02-22T00:59:31.078Z,41.90
2023-02-22T01:01:58.525Z,39.58
2023-02-22T01:04:25.382Z,42.00
2023-02-22T01:06:52.159Z,39.30
2023-02-22T01:09:18.814Z,43.25
2023-02-22T01:11:45.356Z,40.72
2023-02-22T01:14:11.911Z,41.00
2023-02-22T01:16:38.544Z,39.20
2023-02-22T01:19:06.864Z,41.28
2023-02-22T01:21:33.892Z,37.35
2023-02-22T01:24:00.714Z,36.88
2023-02-22T01:26:27.299Z,35.00
2023-02-22T01:29:05.000Z,36.67
2023-02-22T01:31:31.859Z,53.22
2023-02-22T01:33:58.888Z,39.28
2023-02-22T01:36:25.599Z,50.90
2023-02-22T01:38:52.146Z,37.83
2023-02-22T01:41:22.451Z,54.65
2023-02-22T01:43:49.060Z,40.17
2023-02-22T01:46:26.469Z,42.30
2023-02-22T01:49:10.377Z,37.55
2023-02-22T01:51:40.358Z,38.53
2023-02-22T01:54:10.753Z,37.65
2023-02-22T01:56:42.727Z,41.67
2023-02-22T01:59:11.238Z,37.55
2023-02-22T02:01:42.845Z,38.13
2023-02-22T02:04:15.433Z,34.45
2023-02-22T02:06:42.239Z,35.78
2023-02-22T02:09:32.075Z,35.85
2023-02-22T02:12:05.033Z,34.53
2023-02-22T02:14:32.463Z,30.73
2023-02-22T02:17:01.315Z,32.55
2023-02-22T02:19:41.827Z,36.15
2023-02-22T02:22:30.808Z,29.17
2023-02-22T02:25:18.113Z,30.05
2023-02-22T02:27:59.997Z,37.80
2023-02-22T02:30:45.945Z,32.05
2023-02-22T02:33:35.129Z,31.52
2023-02-22T02:36:14.071Z,29.55
2023-02-22T02:38:57.835Z,35.65
2023-02-22T02:41:31.964Z,36.28
2023-02-22T02:44:26.288Z,30.17
2023-02-22T02:47:09.251Z,29.05
2023-02-22T02:49:59.287Z,33.85
2023-02-22T02:52:27.401Z,33.58
2023-02-22T02:54:55.453Z,28.60
2023-02-22T02:57:22.159Z,36.55
2023-02-22T02:59:48.863Z,30.52
2023-02-22T03:02:49.676Z,30.02
2023-02-22T03:05:34.249Z,35.90
2023-02-22T03:08:14.636Z,28.77
2023-02-22T03:11:07.063Z,33.33
2023-02-22T03:13:36.769Z,36.38
2023-02-22T03:16:12.735Z,30.88
2023-02-22T03:18:59.780Z,35.28
2023-02-22T03:21:48.258Z,28.45
2023-02-22T03:24:29.712Z,28.73
2023-02-22T03:27:02.845Z,32.42
2023-02-22T03:29:35.444Z,24.85
2023-02-22T03:32:07.170Z,26.58
2023-02-22T03:34:45.859Z,27.15
2023-02-22T03:37:19.498Z,26.65
2023-02-22T03:39:47.602Z,30.85
2023-02-22T03:42:24.238Z,24.65
2023-02-22T03:44:52.860Z,30.00
2023-02-22T03:47:28.238Z,24.60
2023-02-22T03:50:06.853Z,26.77
2023-02-22T03:52:35.458Z,26.02
2023-02-22T03:55:04.488Z,28.23
2023-02-22T03:57:35.646Z,22.30
2023-02-22T04:00:08.937Z,26.95
2023-02-22T04:02:44.863Z,28.50
2023-02-22T04:05:17.913Z,31.42
2023-02-22T04:07:44.701Z,31.92
2023-02-22T04:10:14.907Z,33.22
2023-02-22T04:12:41.739Z,29.10
2023-02-22T04:15:09.620Z,32.33
2023-02-22T04:17:36.711Z,32.33
2023-02-22T04:20:05.404Z,31.52
2023-02-22T04:22:43.759Z,31.80
2023-02-22T04:25:10.603Z,37.00
2023-02-22T04:27:37.323Z,32.28
2023-02-22T04:30:04.193Z,29.67
2023-02-22T04:32:33.177Z,28.80
2023-02-22T04:34:59.843Z,36.20
2023-02-22T04:37:30.674Z,38.58
2023-02-22T04:39:57.525Z,28.27
2023-02-22T04:42:24.049Z,31.75
2023-02-22T04:44:51.746Z,31.70
2023-02-22T04:47:19.741Z,33.83
2023-02-22T04:49:46.391Z,35.25
2023-02-22T04:52:13.887Z,32.08
2023-02-22T04:54:40.580Z,39.03
2023-02-22T04:57:07.129Z,34.65
2023-02-22T04:59:34.341Z,38.75
2023-02-22T05:02:02.350Z,33.35
2023-02-22T05:04:28.962Z,37.95
2023-02-22T05:06:55.481Z,31.23
2023-02-22T05:09:22.039Z,33.05
2023-02-22T05:11:49.300Z,44.45
2023-02-22T05:14:15.863Z,30.85
2023-02-22T05:16:42.575Z,33.72
2023-02-22T05:19:09.462Z,42.78
2023-02-22T05:21:36.291Z,33.80
2023-02-22T05:24:02.945Z,47.28
2023-02-22T05:26:29.572Z,34.83
2023-02-22T05:28:56.109Z,32.28
2023-02-22T05:31:22.697Z,49.35
2023-02-22T05:33:49.429Z,33.33
2023-02-22T05:36:16.703Z,53.30
2023-02-22T05:38:44.731Z,35.65
2023-02-22T05:41:12.493Z,41.03
2023-02-22T05:43:39.908Z,35.00
2023-02-22T05:46:06.597Z,53.17
2023-02-22T05:48:33.824Z,32.05
2023-02-22T05:51:00.401Z,37.35
2023-02-22T05:53:27.704Z,35.03
2023-02-22T05:55:54.589Z,35.40
2023-02-22T05:58:21.697Z,43.75
2023-02-22T06:00:48.213Z,31.92
2023-02-22T06:03:14.964Z,56.83
2023-02-22T06:05:42.282Z,36.22
2023-02-22T06:08:08.919Z,39.90
2023-02-22T06:10:35.592Z,35.83
2023-02-22T06:13:03.457Z,58.95
2023-02-22T06:15:30.043Z,35.95
2023-02-22T06:17:57.839Z,44.03
2023-02-22T06:20:25.985Z,37.42
2023-02-22T06:22:54.697Z,36.75
2023-02-22T06:25:27.020Z,49.17
2023-02-22T06:27:53.901Z,42.03
2023-02-22T06:30:22.609Z,51.85
2023-02-22T06:32:49.581Z,41.90
2023-02-22T06:35:16.879Z,56.20
2023-02-22T06:37:43.986Z,42.42
2023-02-22T06:40:14.172Z,52.80
2023-02-22T06:42:41.036Z,55.55
2023-02-22T06:45:08.477Z,49.53
2023-02-22T06:47:39.658Z,42.20
2023-02-22T06:52:32.780Z,43.28
2023-02-22T06:54:59.388Z,43.30
2023-02-22T06:57:25.871Z,53.47
2023-02-22T06:59:52.355Z,47.38
2023-02-22T07:02:18.843Z,65.45
2023-02-22T07:04:45.603Z,47.33
2023-02-22T07:07:12.144Z,69.55
2023-02-22T07:09:38.673Z,46.33
2023-02-22T07:12:05.600Z,48.00
2023-02-22T07:14:32.149Z,41.50
2023-02-22T07:16:58.736Z,44.40
2023-02-22T07:19:25.332Z,45.30
2023-02-22T07:21:58.969Z,41.20
2023-02-22T07:24:28.305Z,42.55
2023-02-22T07:26:54.863Z,43.42
2023-02-22T07:29:22.564Z,42.13
2023-02-22T07:31:49.406Z,40.28
2023-02-22T07:34:15.966Z,41.72
2023-02-22T07:36:42.543Z,47.05
2023-02-22T07:39:09.150Z,42.70
2023-02-22T07:41:35.839Z,48.17
2023-02-22T07:44:02.426Z,40.55
2023-02-22T07:46:29.783Z,66.63
2023-02-22T07:48:56.336Z,39.60
2023-02-22T07:51:24.023Z,42.40
2023-02-22T07:53:50.750Z,38.45
2023-02-22T07:56:18.184Z,39.10
2023-02-22T07:58:44.731Z,47.88
2023-02-22T08:01:11.293Z,39.17
2023-02-22T08:03:38.199Z,44.08
2023-02-22T08:06:06.957Z,38.08
2023-02-22T08:08:34.407Z,43.78
2023-02-22T08:11:01.199Z,34.80
2023-02-22T08:13:28.268Z,41.65
2023-02-22T08:15:54.975Z,32.97
2023-02-22T08:18:22.832Z,33.72
2023-02-22T08:20:51.913Z,32.58
2023-02-22T08:23:20.474Z,30.50
2023-02-22T08:25:47.098Z,34.90
2023-02-22T08:28:16.982Z,29.15
2023-02-22T08:30:43.723Z,30.27
2023-02-22T08:33:14.769Z,27.88
2023-02-22T08:35:41.935Z,31.52
2023-02-22T08:38:16.571Z,26.20
2023-02-22T08:40:43.111Z,30.15
2023-02-22T08:43:09.653Z,26.73
2023-02-22T08:45:36.291Z,30.50
2023-02-22T08:48:03.535Z,24.90
2023-02-22T08:50:33.435Z,29.55
2023-02-22T08:53:01.675Z,24.35
2023-02-22T08:55:33.067Z,26.27
2023-02-22T08:58:02.089Z,26.00
2023-02-22T09:00:32.905Z,25.05
2023-02-22T09:03:01.264Z,22.90
2023-02-22T09:05:29.764Z,23.23
2023-02-22T09:07:57.765Z,22.98
2023-02-22T09:10:26.955Z,23.35
2023-02-22T09:12:57.640Z,20.80
2023-02-22T09:15:25.392Z,19.80
2023-02-22T09:17:52.686Z,20.17
2023-02-22T09:20:21.057Z,30.50
2023-02-22T09:22:49.090Z,20.80
2023-02-22T09:25:17.545Z,26.45
2023-02-22T09:27:47.924Z,21.23
2023-02-22T09:30:25.994Z,31.25
2023-02-22T09:32:57.971Z,19.65
2023-02-22T09:35:27.163Z,22.50
2023-02-22T09:37:58.955Z,21.95
2023-02-22T09:40:31.320Z,21.98
2023-02-22T09:43:16.727Z,24.58
2023-02-22T09:45:54.466Z,21.83
2023-02-22T09:48:22.591Z,29.67
2023-02-22T09:50:52.393Z,21.13
2023-02-22T09:53:30.665Z,20.40
2023-02-22T09:56:17.330Z,19.60
2023-02-22T09:58:49.548Z,19.67
2023-02-22T10:01:23.105Z,30.02
2023-02-22T10:03:55.812Z,17.25
2023-02-22T10:06:24.513Z,22.17
2023-02-22T10:08:57.119Z,26.27
2023-02-22T10:11:58.614Z,21.15
2023-02-22T10:14:49.788Z,21.10
2023-02-22T10:17:39.291Z,19.48
2023-02-22T10:20:21.966Z,23.17
2023-02-22T10:23:05.312Z,48.33
2023-02-22T10:25:36.276Z,26.42
2023-02-22T10:28:18.467Z,21.13
2023-02-22T10:30:57.432Z,19.65
2023-02-22T10:33:28.474Z,20.80
2023-02-22T10:35:55.564Z,16.20
2023-02-22T10:38:28.109Z,30.42
2023-02-22T10:41:03.790Z,16.45
2023-02-22T10:43:30.727Z,41.70
2023-02-22T10:46:01.265Z,17.20
2023-02-22T10:48:30.087Z,36.60
2023-02-22T10:51:01.956Z,17.63
2023-02-22T10:53:29.797Z,24.52
2023-02-22T10:56:26.395Z,17.85
2023-02-22T10:58:57.599Z,18.02
2023-02-22T11:01:33.040Z,20.83
2023-02-22T11:04:13.775Z,18.13
2023-02-22T11:06:49.182Z,23.30
2023-02-22T11:09:23.737Z,19.27
2023-02-22T11:12:07.168Z,21.10
2023-02-22T11:14:33.744Z,24.77
2023-02-22T11:17:01.756Z,19.70
2023-02-22T11:19:30.303Z,16.15
2023-02-22T11:22:21.358Z,21.20
2023-02-22T11:24:57.963Z,19.63
2023-02-22T11:27:40.599Z,18.60
2023-02-22T11:30:15.474Z,53.35
2023-02-22T11:32:47.421Z,19.92
2023-02-22T11:35:36.965Z,35.70
2023-02-22T11:38:18.260Z,23.75
2023-02-22T11:40:45.296Z,16.83
2023-02-22T11:43:17.877Z,24.75
2023-02-22T11:46:08.171Z,15.73
2023-02-22T11:48:38.957Z,22.80
2023-02-22T11:51:17.111Z,16.73
2023-02-22T11:53:52.903Z,26.63
2023-02-22T11:56:37.242Z,26.73
2023-02-22T11:59:11.490Z,15.88
2023-02-22T12:01:47.790Z,30.83
2023-02-22T12:04:30.175Z,15.60
2023-02-22T12:07:22.392Z,15.38
2023-02-22T12:10:12.401Z,15.48
2023-02-22T12:13:03.704Z,18.80
2023-02-22T12:16:11.932Z,15.10
2023-02-22T12:19:13.793Z,17.40
2023-02-22T12:21:43.808Z,19.58
2023-02-22T12:24:16.964Z,19.00
2023-02-22T12:26:53.903Z,34.63
2023-02-22T12:29:39.745Z,12.85
2023-02-22T12:32:31.195Z,13.98
2023-02-22T12:37:48.518Z,14.30
2023-02-22T12:40:35.431Z,21.13
2023-02-22T12:43:08.821Z,20.35
2023-02-22T12:45:48.527Z,13.45
2023-02-22T12:48:35.632Z,28.40
2023-02-22T12:51:12.366Z,11.25
2023-02-22T12:53:40.927Z,12.43
2023-02-22T12:56:25.389Z,13.27
2023-02-22T12:59:03.725Z,11.73
2023-02-22T13:01:36.678Z,16.08
2023-02-22T13:04:19.409Z,12.20
2023-02-22T13:07:10.840Z,11.68
2023-02-22T13:09:56.433Z,11.60
2023-02-22T13:12:25.500Z,43.72
2023-02-22T13:15:14.201Z,11.68
2023-02-22T13:18:15.202Z,11.50
2023-02-22T13:20:46.880Z,14.70
2023-02-22T13:23:16.930Z,20.33
2023-02-22T13:25:50.537Z,20.77
2023-02-22T13:28:22.928Z,15.45
2023-02-22T13:30:56.934Z,13.73
2023-02-22T13:33:43.825Z,13.18
2023-02-22T13:36:25.973Z,12.43
2023-02-22T13:39:05.328Z,13.23
2023-02-22T13:41:40.577Z,17.33
2023-02-22T13:45:04.352Z,11.50
2023-02-22T13:47:38.968Z,15.95
2023-02-22T13:50:39.301Z,32.58
2023-02-22T13:53:10.838Z,26.15
2023-02-22T13:55:48.569Z,12.02
2023-02-22T13:58:15.530Z,12.43
2023-02-22T14:00:50.107Z,23.20
2023-02-22T14:03:40.832Z,14.88
2023-02-22T14:06:11.058Z,12.13
2023-02-22T14:08:37.544Z,38.25
2023-02-22T14:11:24.932Z,13.63
2023-02-22T14:13:55.657Z,13.07
2023-02-22T14:16:22.136Z,17.38
2023-02-22T14:18:50.728Z,13.00
2023-02-22T14:21:20.545Z,17.75
2023-02-22T14:23:48.366Z,12.85
2023-02-22T14:26:38.106Z,15.52
2023-02-22T14:29:07.729Z,15.18
2023-02-22T14:31:55.133Z,22.45
2023-02-22T14:34:31.274Z,24.65
2023-02-22T14:37:05.092Z,20.58
2023-02-22T14:39:38.146Z,51.58
2023-02-22T14:42:13.107Z,15.65
2023-02-22T14:44:55.257Z,22.80
2023-02-22T14:47:28.190Z,24.80
2023-02-22T14:50:01.601Z,14.43
2023-02-22T14:52:30.473Z,53.22
2023-02-22T14:55:11.791Z,24.70
2023-02-22T14:57:56.954Z,91.65
2023-02-22T15:00:31.112Z,65.47
2023-02-22T15:03:00.942Z,28.77
2023-02-22T15:05:30.339Z,49.22
2023-02-22T15:08:03.314Z,35.72
2023-02-22T15:10:46.730Z,90.07
2023-02-22T15:13:23.734Z,34.05
2023-02-22T15:16:03.374Z,14.98
2023-02-22T15:18:37.058Z,21.98
2023-02-22T15:21:24.843Z,14.57
2023-02-22T15:23:53.667Z,20.10
2023-02-22T15:26:30.060Z,15.43
2023-02-22T15:28:59.852Z,23.13
2023-02-22T15:31:33.479Z,19.20
2023-02-22T15:34:15.348Z,25.85
2023-02-22T15:36:44.904Z,20.85
2023-02-22T15:39:33.018Z,17.98
2023-02-22T15:42:08.158Z,29.35
2023-02-22T15:44:42.541Z,21.23
2023-02-22T15:47:17.207Z,33.97
2023-02-22T15:49:44.062Z,23.83
2023-02-22T15:52:21.506Z,18.08
2023-02-22T15:54:51.123Z,23.98
2023-02-22T15:57:20.747Z,21.50
2023-02-22T15:59:52.897Z,22.98
2023-02-22T16:02:35.518Z,19.10
2023-02-22T16:05:06.912Z,60.15
2023-02-22T16:07:37.250Z,24.63
2023-02-22T16:10:09.054Z,26.52
2023-02-22T16:12:35.993Z,21.77
2023-02-22T16:15:03.336Z,23.25
2023-02-22T16:17:49.342Z,17.67
2023-02-22T16:20:21.826Z,36.83
2023-02-22T16:22:49.777Z,23.55
2023-02-22T16:25:19.051Z,33.00
2023-02-22T16:28:01.385Z,20.70
2023-02-22T16:30:33.795Z,18.52
2023-02-22T16:33:05.470Z,45.10
2023-02-22T16:35:35.376Z,17.05
2023-02-22T16:38:03.539Z,22.83
2023-02-22T16:40:34.442Z,34.88
2023-02-22T16:43:03.789Z,18.67
2023-02-22T16:45:30.470Z,31.38
2023-02-22T16:47:59.605Z,18.33
2023-02-22T16:50:26.740Z,41.10
2023-02-22T16:52:55.074Z,18.60
2023-02-22T16:55:22.130Z,30.58
2023-02-22T16:57:49.375Z,28.67
2023-02-22T17:00:21.563Z,38.85
2023-02-22T17:02:48.992Z,33.65
2023-02-22T17:05:16.251Z,40.38
2023-02-22T17:07:42.999Z,32.63
2023-02-22T17:10:16.241Z,38.53
2023-02-22T17:12:46.000Z,28.95
2023-02-22T17:15:41.730Z,26.83
2023-02-22T17:18:16.322Z,24.15
2023-02-22T17:20:44.894Z,45.72
2023-02-22T17:23:11.665Z,19.42
2023-02-22T17:25:55.643Z,31.25
2023-02-22T17:28:25.627Z,20.98
2023-02-22T17:30:54.235Z,22.25
2023-02-22T17:33:26.473Z,19.83
2023-02-22T17:35:53.904Z,23.63
2023-02-22T17:38:20.651Z,18.55
2023-02-22T17:40:54.811Z,31.05
2023-02-22T17:43:22.177Z,25.38
2023-02-22T17:45:48.997Z,30.88
2023-02-22T17:48:16.567Z,24.20
2023-02-22T17:50:44.612Z,28.63
2023-02-22T17:53:11.586Z,20.45
2023-02-22T17:55:40.721Z,24.55
2023-02-22T17:58:14.490Z,26.98
2023-02-22T18:00:44.797Z,22.60
2023-02-22T18:03:15.317Z,34.00
2023-02-22T18:05:44.342Z,21.05
2023-02-22T18:08:11.484Z,41.95
2023-02-22T18:10:38.377Z,22.10
2023-02-22T18:13:05.160Z,27.85
2023-02-22T18:15:35.448Z,24.85
2023-02-22T18:18:03.418Z,25.27
2023-02-22T18:20:38.162Z,26.80
2023-02-22T18:23:09.661Z,35.90
2023-02-22T18:25:37.152Z,24.60
2023-02-22T18:28:06.482Z,32.75
2023-02-22T18:30:35.717Z,27.10
2023-02-22T18:33:03.560Z,28.35
2023-02-22T18:35:30.399Z,30.05
2023-02-22T18:37:56.995Z,30.23
2023-02-22T18:40:23.814Z,63.92
2023-02-22T18:42:50.416Z,29.50
2023-02-22T18:45:17.180Z,48.72
2023-02-22T18:47:44.224Z,35.95
2023-02-22T18:50:11.411Z,51.90
2023-02-22T18:52:46.664Z,29.60
2023-02-22T18:55:14.142Z,58.38
2023-02-22T18:57:40.971Z,46.65
2023-02-22T19:00:09.902Z,44.40
2023-02-22T19:02:36.904Z,53.20
2023-02-22T19:05:12.336Z,34.65
2023-02-22T19:07:42.145Z,48.13
2023-02-22T19:10:09.029Z,44.83
2023-02-22T19:12:35.719Z,71.18
2023-02-22T19:15:02.883Z,37.83
2023-02-22T19:17:31.194Z,55.30
2023-02-22T19:19:57.763Z,35.88
2023-02-22T19:22:32.627Z,42.72
2023-02-22T19:25:03.143Z,40.25
2023-02-22T19:27:31.267Z,63.78
2023-02-22T19:29:58.463Z,40.40
2023-02-22T19:32:25.448Z,50.30
2023-02-22T19:35:02.719Z,61.63
2023-02-22T19:37:34.138Z,46.90
2023-02-22T19:40:06.694Z,40.45
2023-02-22T19:42:33.546Z,70.13
2023-02-22T19:45:02.433Z,44.28
2023-02-22T19:47:29.027Z,46.30
2023-02-22T19:49:59.229Z,40.45
2023-02-22T19:52:29.112Z,54.47
2023-02-22T19:55:12.444Z,80.15
2023-02-22T19:57:40.464Z,50.53
2023-02-22T20:00:11.556Z,52.28
2023-02-22T20:02:43.213Z,63.25
2023-02-22T20:05:13.214Z,56.55
2023-02-22T20:07:40.694Z,66.78
2023-02-22T20:10:07.640Z,52.67
2023-02-22T20:12:34.339Z,76.50
2023-02-22T20:15:03.094Z,44.63
2023-02-22T20:17:29.766Z,77.07
2023-02-22T20:19:56.321Z,42.58
2023-02-22T20:22:22.911Z,56.97
2023-02-22T20:24:49.689Z,48.30
2023-02-22T20:27:16.910Z,86.38
2023-02-22T20:29:43.819Z,47.75
2023-02-22T20:32:14.753Z,55.72
2023-02-22T20:34:46.025Z,51.97
2023-02-22T20:37:14.639Z,57.55
2023-02-22T20:39:42.490Z,56.33
2023-02-22T20:42:10.714Z,72.88
2023-02-22T20:44:37.550Z,47.83
2023-02-22T20:47:04.224Z,82.13
2023-02-22T20:49:32.482Z,52.85
2023-02-22T20:51:59.114Z,64.25
2023-02-22T20:54:25.819Z,56.47
2023-02-22T20:56:53.221Z,73.28
2023-02-22T20:59:20.499Z,52.42
2023-02-22T21:01:53.007Z,67.15
2023-02-22T21:04:22.004Z,50.53
2023-02-22T21:06:50.766Z,71.65
2023-02-22T21:09:19.563Z,51.97
2023-02-22T21:11:46.671Z,53.13
2023-02-22T21:14:18.440Z,59.47
2023-02-22T21:16:47.887Z,50.78
2023-02-22T21:19:16.445Z,50.97
2023-02-22T21:21:45.797Z,52.63
2023-02-22T21:24:12.595Z,58.08
2023-02-22T21:26:39.549Z,50.33
2023-02-22T21:29:06.587Z,77.60
2023-02-22T21:31:34.355Z,49.60
2023-02-22T21:34:01.782Z,82.00
2023-02-22T21:36:28.551Z,51.90
2023-02-22T21:39:00.882Z,71.20
2023-02-22T21:41:29.646Z,53.53
2023-02-22T21:43:58.831Z,88.80
2023-02-22T21:46:27.156Z,55.25
2023-02-22T21:48:58.336Z,86.35
2023-02-22T21:51:31.212Z,53.53
2023-02-22T21:54:01.021Z,95.63
2023-02-22T21:56:28.570Z,54.10
2023-02-22T21:59:04.811Z,65.93
2023-02-22T22:01:33.774Z,55.85
2023-02-22T22:04:01.732Z,94.88
2023-02-22T22:06:29.851Z,57.38
2023-02-22T22:08:58.087Z,98.20
2023-02-22T22:11:25.242Z,63.40
2023-02-22T22:13:57.320Z,58.45
2023-02-22T22:16:26.129Z,72.50
2023-02-22T22:18:53.771Z,52.65
2023-02-22T22:21:22.750Z,70.05
2023-02-22T22:23:50.396Z,53.67
2023-02-22T22:26:19.879Z,85.88
2023-02-22T22:28:49.189Z,62.45
2023-02-22T22:31:19.434Z,88.53
2023-02-22T22:33:46.351Z,59.05
2023-02-22T22:36:15.712Z,53.13
2023-02-22T22:38:43.192Z,86.00
2023-02-22T22:41:13.168Z,52.72
2023-02-22T22:43:41.283Z,64.45
2023-02-22T22:46:08.572Z,55.08
2023-02-22T22:48:38.902Z,106.47
2023-02-22T22:51:06.836Z,56.38
2023-02-22T22:53:34.116Z,64.25
2023-02-22T22:56:14.496Z,53.67
2023-02-22T22:58:43.805Z,71.18
2023-02-22T23:01:18.043Z,54.42
2023-02-22T23:03:54.896Z,95.10
2023-02-22T23:06:26.642Z,61.28
2023-02-22T23:09:21.556Z,65.05
2023-02-22T23:11:53.689Z,74.63
2023-02-22T23:14:22.541Z,62.95
2023-02-22T23:16:50.621Z,64.47
2023-02-22T23:19:19.429Z,60.63
2023-02-22T23:21:48.247Z,66.22
2023-02-22T23:24:18.847Z,50.80
2023-02-22T23:26:48.762Z,65.03
2023-02-22T23:29:17.517Z,58.50
2023-02-22T23:31:48.622Z,66.07
2023-02-22T23:36:45.317Z,61.33
2023-02-22T23:39:14.055Z,57.60
2023-02-22T23:41:41.363Z,66.20
2023-02-22T23:44:08.780Z,65.22
2023-02-22T23:46:36.443Z,60.08
2023-02-22T23:49:05.412Z,74.07
2023-02-22T23:51:39.381Z,59.17
2023-02-22T23:54:07.383Z,62.92
2023-02-22T23:56:35.295Z,60.75
2023-02-22T23:59:09.113Z,64.75
